sensor_id;sensor_type;location;lat;lon;timestamp;P1;durP1;ratioP1;P2;durP2;ratioP2
21480;SDS011;10902;48.158;8.634;2024-03-07T00:02:03;36.35;;;23.85;;
21480;SDS011;10902;48.158;8.634;2024-03-07T00:04:49;43.53;;;24.73;;
21480;SDS011;10902;48.158;8.634;2024-03-07T00:07:35;46.10;;;26.92;;
21480;SDS011;10902;48.158;8.634;2024-03-07T00:10:21;49.17;;;25.13;;
21480;SDS011;10902;48.158;8.634;2024-03-07T00:13:08;34.10;;;22.10;;
21480;SDS011;10902;48.158;8.634;2024-03-07T00:15:53;40.20;;;22.80;;
21480;SDS011;10902;48.158;8.634;2024-03-07T00:18:39;35.80;;;21.85;;
21480;SDS011;10902;48.158;8.634;2024-03-07T00:21:25;35.05;;;21.17;;
21480;SDS011;10902;48.158;8.634;2024-03-07T00:24:11;36.50;;;21.15;;
21480;SDS011;10902;48.158;8.634;2024-03-07T00:26:58;36.35;;;22.83;;
21480;SDS011;10902;48.158;8.634;2024-03-07T00:29:44;32.58;;;21.30;;
21480;SDS011;10902;48.158;8.634;2024-03-07T00:32:37;37.17;;;22.20;;
21480;SDS011;10902;48.158;8.634;2024-03-07T00:35:24;29.35;;;19.60;;
21480;SDS011;10902;48.158;8.634;2024-03-07T00:38:10;39.97;;;23.60;;
21480;SDS011;10902;48.158;8.634;2024-03-07T00:40:55;39.03;;;24.00;;
21480;SDS011;10902;48.158;8.634;2024-03-07T00:43:41;31.25;;;19.42;;
21480;SDS011;10902;48.158;8.634;2024-03-07T00:46:26;33.08;;;20.55;;
21480;SDS011;10902;48.158;8.634;2024-03-07T00:49:12;33.42;;;20.33;;
21480;SDS011;10902;48.158;8.634;2024-03-07T00:51:58;33.78;;;20.92;;
21480;SDS011;10902;48.158;8.634;2024-03-07T00:54:44;35.00;;;20.90;;
21480;SDS011;10902;48.158;8.634;2024-03-07T00:57:30;35.97;;;22.55;;
21480;SDS011;10902;48.158;8.634;2024-03-07T01:00:16;31.75;;;19.58;;
21480;SDS011;10902;48.158;8.634;2024-03-07T01:06:47;33.67;;;20.95;;
21480;SDS011;10902;48.158;8.634;2024-03-07T01:09:33;33.08;;;19.40;;
21480;SDS011;10902;48.158;8.634;2024-03-07T01:12:20;36.70;;;21.17;;
21480;SDS011;10902;48.158;8.634;2024-03-07T01:15:09;36.33;;;21.92;;
21480;SDS011;10902;48.158;8.634;2024-03-07T01:17:56;37.85;;;21.50;;
21480;SDS011;10902;48.158;8.634;2024-03-07T01:20:42;43.75;;;23.23;;
21480;SDS011;10902;48.158;8.634;2024-03-07T01:23:27;41.53;;;23.95;;
21480;SDS011;10902;48.158;8.634;2024-03-07T01:26:13;164.75;;;29.98;;
21480;SDS011;10902;48.158;8.634;2024-03-07T01:28:59;75.32;;;27.55;;
21480;SDS011;10902;48.158;8.634;2024-03-07T01:31:45;50.65;;;25.40;;
21480;SDS011;10902;48.158;8.634;2024-03-07T01:34:30;48.15;;;25.50;;
21480;SDS011;10902;48.158;8.634;2024-03-07T01:37:16;58.63;;;26.98;;
21480;SDS011;10902;48.158;8.634;2024-03-07T01:40:02;59.78;;;26.98;;
21480;SDS011;10902;48.158;8.634;2024-03-07T01:42:50;58.17;;;29.08;;
21480;SDS011;10902;48.158;8.634;2024-03-07T01:45:35;74.70;;;31.45;;
21480;SDS011;10902;48.158;8.634;2024-03-07T01:48:25;63.83;;;30.05;;
21480;SDS011;10902;48.158;8.634;2024-03-07T01:51:13;71.28;;;34.42;;
21480;SDS011;10902;48.158;8.634;2024-03-07T01:54:00;76.68;;;37.70;;
21480;SDS011;10902;48.158;8.634;2024-03-07T01:56:47;73.50;;;36.80;;
21480;SDS011;10902;48.158;8.634;2024-03-07T01:59:33;76.68;;;38.35;;
21480;SDS011;10902;48.158;8.634;2024-03-07T02:02:19;82.35;;;39.42;;
21480;SDS011;10902;48.158;8.634;2024-03-07T02:05:05;73.57;;;38.22;;
21480;SDS011;10902;48.158;8.634;2024-03-07T02:07:51;74.63;;;38.97;;
21480;SDS011;10902;48.158;8.634;2024-03-07T02:10:37;78.22;;;37.72;;
21480;SDS011;10902;48.158;8.634;2024-03-07T02:13:23;83.43;;;41.97;;
21480;SDS011;10902;48.158;8.634;2024-03-07T02:16:08;85.38;;;43.65;;
21480;SDS011;10902;48.158;8.634;2024-03-07T02:18:54;80.65;;;41.30;;
21480;SDS011;10902;48.158;8.634;2024-03-07T02:21:40;82.38;;;41.17;;
21480;SDS011;10902;48.158;8.634;2024-03-07T02:24:25;80.97;;;40.17;;
21480;SDS011;10902;48.158;8.634;2024-03-07T02:27:11;85.65;;;44.38;;
21480;SDS011;10902;48.158;8.634;2024-03-07T02:29:59;84.90;;;43.17;;
21480;SDS011;10902;48.158;8.634;2024-03-07T02:32:45;81.72;;;42.13;;
21480;SDS011;10902;48.158;8.634;2024-03-07T02:35:36;81.75;;;41.40;;
21480;SDS011;10902;48.158;8.634;2024-03-07T02:38:23;77.15;;;40.60;;
21480;SDS011;10902;48.158;8.634;2024-03-07T02:41:09;82.53;;;42.17;;
21480;SDS011;10902;48.158;8.634;2024-03-07T02:43:54;82.97;;;40.90;;
21480;SDS011;10902;48.158;8.634;2024-03-07T02:46:40;83.78;;;41.47;;
21480;SDS011;10902;48.158;8.634;2024-03-07T02:49:26;80.28;;;42.40;;
21480;SDS011;10902;48.158;8.634;2024-03-07T02:52:11;77.43;;;40.90;;
21480;SDS011;10902;48.158;8.634;2024-03-07T02:54:57;71.32;;;37.75;;
21480;SDS011;10902;48.158;8.634;2024-03-07T02:57:43;80.38;;;41.53;;
21480;SDS011;10902;48.158;8.634;2024-03-07T03:00:28;78.28;;;41.17;;
21480;SDS011;10902;48.158;8.634;2024-03-07T03:03:14;75.88;;;40.10;;
21480;SDS011;10902;48.158;8.634;2024-03-07T03:06:00;79.45;;;41.55;;
21480;SDS011;10902;48.158;8.634;2024-03-07T03:08:46;79.78;;;43.30;;
21480;SDS011;10902;48.158;8.634;2024-03-07T03:11:32;83.85;;;42.90;;
21480;SDS011;10902;48.158;8.634;2024-03-07T03:14:19;87.47;;;45.35;;
21480;SDS011;10902;48.158;8.634;2024-03-07T03:17:04;85.25;;;44.15;;
21480;SDS011;10902;48.158;8.634;2024-03-07T03:19:50;85.78;;;43.58;;
21480;SDS011;10902;48.158;8.634;2024-03-07T03:22:36;91.70;;;46.25;;
21480;SDS011;10902;48.158;8.634;2024-03-07T03:25:22;81.90;;;43.80;;
21480;SDS011;10902;48.158;8.634;2024-03-07T03:28:11;93.05;;;46.88;;
21480;SDS011;10902;48.158;8.634;2024-03-07T03:30:57;92.13;;;44.97;;
21480;SDS011;10902;48.158;8.634;2024-03-07T03:33:42;90.10;;;46.35;;
21480;SDS011;10902;48.158;8.634;2024-03-07T03:36:28;91.40;;;44.35;;
21480;SDS011;10902;48.158;8.634;2024-03-07T03:39:14;93.97;;;47.08;;
21480;SDS011;10902;48.158;8.634;2024-03-07T03:42:00;97.65;;;48.05;;
21480;SDS011;10902;48.158;8.634;2024-03-07T03:44:46;94.30;;;47.75;;
21480;SDS011;10902;48.158;8.634;2024-03-07T03:47:35;97.88;;;47.20;;
21480;SDS011;10902;48.158;8.634;2024-03-07T03:50:21;100.13;;;45.45;;
21480;SDS011;10902;48.158;8.634;2024-03-07T03:53:09;95.00;;;46.97;;
21480;SDS011;10902;48.158;8.634;2024-03-07T03:55:55;92.32;;;47.03;;
21480;SDS011;10902;48.158;8.634;2024-03-07T03:58:41;100.07;;;46.97;;
21480;SDS011;10902;48.158;8.634;2024-03-07T04:01:28;101.50;;;47.80;;
21480;SDS011;10902;48.158;8.634;2024-03-07T04:04:13;98.00;;;46.60;;
21480;SDS011;10902;48.158;8.634;2024-03-07T04:06:59;98.72;;;47.00;;
21480;SDS011;10902;48.158;8.634;2024-03-07T04:09:45;95.75;;;47.10;;
21480;SDS011;10902;48.158;8.634;2024-03-07T04:12:31;99.70;;;48.28;;
21480;SDS011;10902;48.158;8.634;2024-03-07T04:15:17;99.57;;;47.00;;
21480;SDS011;10902;48.158;8.634;2024-03-07T04:18:03;103.50;;;48.53;;
21480;SDS011;10902;48.158;8.634;2024-03-07T04:20:49;99.47;;;48.95;;
21480;SDS011;10902;48.158;8.634;2024-03-07T04:23:34;98.63;;;47.00;;
21480;SDS011;10902;48.158;8.634;2024-03-07T04:26:20;118.32;;;49.90;;
21480;SDS011;10902;48.158;8.634;2024-03-07T04:29:06;120.50;;;48.58;;
21480;SDS011;10902;48.158;8.634;2024-03-07T04:31:53;108.65;;;49.65;;
21480;SDS011;10902;48.158;8.634;2024-03-07T04:34:39;110.32;;;50.63;;
21480;SDS011;10902;48.158;8.634;2024-03-07T04:37:24;111.28;;;51.65;;
21480;SDS011;10902;48.158;8.634;2024-03-07T04:40:12;117.78;;;51.53;;
21480;SDS011;10902;48.158;8.634;2024-03-07T04:43:00;134.82;;;52.75;;
21480;SDS011;10902;48.158;8.634;2024-03-07T04:45:46;101.20;;;48.13;;
21480;SDS011;10902;48.158;8.634;2024-03-07T04:48:32;105.28;;;48.10;;
21480;SDS011;10902;48.158;8.634;2024-03-07T04:51:17;107.55;;;50.40;;
21480;SDS011;10902;48.158;8.634;2024-03-07T04:54:03;110.13;;;50.60;;
21480;SDS011;10902;48.158;8.634;2024-03-07T04:56:49;105.63;;;50.47;;
21480;SDS011;10902;48.158;8.634;2024-03-07T04:59:35;115.80;;;52.30;;
21480;SDS011;10902;48.158;8.634;2024-03-07T05:02:21;109.95;;;51.13;;
21480;SDS011;10902;48.158;8.634;2024-03-07T05:05:08;101.40;;;48.15;;
21480;SDS011;10902;48.158;8.634;2024-03-07T05:07:54;107.25;;;50.97;;
21480;SDS011;10902;48.158;8.634;2024-03-07T05:10:40;105.38;;;52.70;;
21480;SDS011;10902;48.158;8.634;2024-03-07T05:13:26;115.53;;;52.58;;
21480;SDS011;10902;48.158;8.634;2024-03-07T05:16:12;110.55;;;55.15;;
21480;SDS011;10902;48.158;8.634;2024-03-07T05:18:58;119.40;;;55.60;;
21480;SDS011;10902;48.158;8.634;2024-03-07T05:21:44;112.85;;;54.13;;
21480;SDS011;10902;48.158;8.634;2024-03-07T05:24:30;118.78;;;55.95;;
21480;SDS011;10902;48.158;8.634;2024-03-07T05:27:19;112.22;;;53.42;;
21480;SDS011;10902;48.158;8.634;2024-03-07T05:30:04;111.05;;;50.70;;
21480;SDS011;10902;48.158;8.634;2024-03-07T05:32:51;118.10;;;54.42;;
21480;SDS011;10902;48.158;8.634;2024-03-07T05:35:36;129.13;;;54.33;;
21480;SDS011;10902;48.158;8.634;2024-03-07T05:38:22;125.38;;;55.30;;
21480;SDS011;10902;48.158;8.634;2024-03-07T05:41:07;115.18;;;54.45;;
21480;SDS011;10902;48.158;8.634;2024-03-07T05:43:53;114.53;;;53.92;;
21480;SDS011;10902;48.158;8.634;2024-03-07T05:46:43;117.03;;;55.17;;
21480;SDS011;10902;48.158;8.634;2024-03-07T05:49:31;115.35;;;54.83;;
21480;SDS011;10902;48.158;8.634;2024-03-07T05:52:17;115.78;;;53.80;;
21480;SDS011;10902;48.158;8.634;2024-03-07T05:55:03;118.22;;;55.92;;
21480;SDS011;10902;48.158;8.634;2024-03-07T05:57:51;110.53;;;52.40;;
21480;SDS011;10902;48.158;8.634;2024-03-07T06:00:37;112.75;;;51.60;;
21480;SDS011;10902;48.158;8.634;2024-03-07T06:03:22;104.72;;;52.10;;
21480;SDS011;10902;48.158;8.634;2024-03-07T06:06:10;104.80;;;50.15;;
21480;SDS011;10902;48.158;8.634;2024-03-07T06:08:57;108.82;;;53.13;;
21480;SDS011;10902;48.158;8.634;2024-03-07T06:11:53;108.65;;;51.38;;
21480;SDS011;10902;48.158;8.634;2024-03-07T06:14:38;98.57;;;51.97;;
21480;SDS011;10902;48.158;8.634;2024-03-07T06:17:24;103.15;;;50.80;;
21480;SDS011;10902;48.158;8.634;2024-03-07T06:20:10;102.30;;;50.03;;
21480;SDS011;10902;48.158;8.634;2024-03-07T06:23:07;103.53;;;50.72;;
21480;SDS011;10902;48.158;8.634;2024-03-07T06:25:53;104.40;;;51.63;;
21480;SDS011;10902;48.158;8.634;2024-03-07T06:28:40;102.00;;;51.20;;
21480;SDS011;10902;48.158;8.634;2024-03-07T06:31:26;96.20;;;47.95;;
21480;SDS011;10902;48.158;8.634;2024-03-07T06:34:12;94.15;;;49.65;;
21480;SDS011;10902;48.158;8.634;2024-03-07T06:36:58;96.60;;;50.88;;
21480;SDS011;10902;48.158;8.634;2024-03-07T06:39:43;96.18;;;47.95;;
21480;SDS011;10902;48.158;8.634;2024-03-07T06:42:29;92.80;;;48.03;;
21480;SDS011;10902;48.158;8.634;2024-03-07T06:45:14;92.47;;;48.75;;
21480;SDS011;10902;48.158;8.634;2024-03-07T06:48:01;92.55;;;49.13;;
21480;SDS011;10902;48.158;8.634;2024-03-07T06:50:47;105.95;;;49.03;;
21480;SDS011;10902;48.158;8.634;2024-03-07T06:53:32;103.68;;;48.83;;
21480;SDS011;10902;48.158;8.634;2024-03-07T06:56:18;112.35;;;53.25;;
21480;SDS011;10902;48.158;8.634;2024-03-07T06:59:04;103.47;;;50.70;;
21480;SDS011;10902;48.158;8.634;2024-03-07T07:01:49;101.35;;;49.40;;
21480;SDS011;10902;48.158;8.634;2024-03-07T07:04:36;101.65;;;51.72;;
21480;SDS011;10902;48.158;8.634;2024-03-07T07:07:27;107.32;;;51.97;;
21480;SDS011;10902;48.158;8.634;2024-03-07T07:10:13;101.72;;;51.65;;
21480;SDS011;10902;48.158;8.634;2024-03-07T07:13:09;101.20;;;51.58;;
21480;SDS011;10902;48.158;8.634;2024-03-07T07:15:55;99.70;;;51.38;;
21480;SDS011;10902;48.158;8.634;2024-03-07T07:18:41;104.38;;;51.30;;
21480;SDS011;10902;48.158;8.634;2024-03-07T07:21:28;95.78;;;49.95;;
21480;SDS011;10902;48.158;8.634;2024-03-07T07:24:13;97.07;;;49.72;;
21480;SDS011;10902;48.158;8.634;2024-03-07T07:26:59;97.10;;;49.88;;
21480;SDS011;10902;48.158;8.634;2024-03-07T07:29:45;85.13;;;46.92;;
21480;SDS011;10902;48.158;8.634;2024-03-07T07:32:31;93.85;;;48.58;;
21480;SDS011;10902;48.158;8.634;2024-03-07T07:35:17;88.32;;;46.35;;
21480;SDS011;10902;48.158;8.634;2024-03-07T07:38:03;84.55;;;48.35;;
21480;SDS011;10902;48.158;8.634;2024-03-07T07:40:48;84.53;;;46.08;;
21480;SDS011;10902;48.158;8.634;2024-03-07T07:43:34;85.05;;;45.65;;
21480;SDS011;10902;48.158;8.634;2024-03-07T07:46:20;81.22;;;46.42;;
21480;SDS011;10902;48.158;8.634;2024-03-07T07:49:06;83.72;;;45.65;;
21480;SDS011;10902;48.158;8.634;2024-03-07T07:51:51;79.78;;;44.85;;
21480;SDS011;10902;48.158;8.634;2024-03-07T07:54:41;78.47;;;44.70;;
21480;SDS011;10902;48.158;8.634;2024-03-07T07:57:30;79.57;;;44.97;;
21480;SDS011;10902;48.158;8.634;2024-03-07T08:00:16;81.45;;;45.50;;
21480;SDS011;10902;48.158;8.634;2024-03-07T08:03:08;77.32;;;43.10;;
21480;SDS011;10902;48.158;8.634;2024-03-07T08:05:55;80.65;;;45.38;;
21480;SDS011;10902;48.158;8.634;2024-03-07T08:08:41;80.57;;;45.03;;
21480;SDS011;10902;48.158;8.634;2024-03-07T08:11:26;84.07;;;47.40;;
21480;SDS011;10902;48.158;8.634;2024-03-07T08:14:12;80.43;;;45.10;;
21480;SDS011;10902;48.158;8.634;2024-03-07T08:16:57;77.47;;;43.72;;
21480;SDS011;10902;48.158;8.634;2024-03-07T08:19:43;79.13;;;44.10;;
21480;SDS011;10902;48.158;8.634;2024-03-07T08:22:28;79.18;;;42.33;;
21480;SDS011;10902;48.158;8.634;2024-03-07T08:25:14;78.20;;;45.08;;
21480;SDS011;10902;48.158;8.634;2024-03-07T08:28:00;74.32;;;41.75;;
21480;SDS011;10902;48.158;8.634;2024-03-07T08:30:46;72.00;;;39.70;;
21480;SDS011;10902;48.158;8.634;2024-03-07T08:33:31;75.00;;;42.40;;
21480;SDS011;10902;48.158;8.634;2024-03-07T08:36:18;70.43;;;42.22;;
21480;SDS011;10902;48.158;8.634;2024-03-07T08:39:03;70.97;;;40.33;;
21480;SDS011;10902;48.158;8.634;2024-03-07T08:41:49;71.15;;;40.47;;
21480;SDS011;10902;48.158;8.634;2024-03-07T08:44:34;63.97;;;37.72;;
21480;SDS011;10902;48.158;8.634;2024-03-07T08:47:20;62.42;;;37.00;;
21480;SDS011;10902;48.158;8.634;2024-03-07T08:50:05;63.05;;;35.85;;
21480;SDS011;10902;48.158;8.634;2024-03-07T08:52:53;58.85;;;36.25;;
21480;SDS011;10902;48.158;8.634;2024-03-07T08:55:39;60.90;;;36.53;;
21480;SDS011;10902;48.158;8.634;2024-03-07T08:58:24;56.85;;;32.33;;
21480;SDS011;10902;48.158;8.634;2024-03-07T09:01:10;60.78;;;35.55;;
21480;SDS011;10902;48.158;8.634;2024-03-07T09:03:55;57.70;;;33.97;;
21480;SDS011;10902;48.158;8.634;2024-03-07T09:06:44;57.35;;;35.10;;
21480;SDS011;10902;48.158;8.634;2024-03-07T09:09:32;62.13;;;35.92;;
21480;SDS011;10902;48.158;8.634;2024-03-07T09:12:18;59.88;;;34.67;;
21480;SDS011;10902;48.158;8.634;2024-03-07T09:15:05;60.20;;;36.22;;
21480;SDS011;10902;48.158;8.634;2024-03-07T09:17:51;63.20;;;37.90;;
21480;SDS011;10902;48.158;8.634;2024-03-07T09:20:37;61.10;;;37.72;;
21480;SDS011;10902;48.158;8.634;2024-03-07T09:23:23;64.10;;;37.95;;
21480;SDS011;10902;48.158;8.634;2024-03-07T09:26:08;67.13;;;39.00;;
21480;SDS011;10902;48.158;8.634;2024-03-07T09:28:54;65.80;;;39.85;;
21480;SDS011;10902;48.158;8.634;2024-03-07T09:31:40;69.57;;;39.03;;
21480;SDS011;10902;48.158;8.634;2024-03-07T09:34:26;71.25;;;40.70;;
21480;SDS011;10902;48.158;8.634;2024-03-07T09:37:12;68.82;;;40.05;;
21480;SDS011;10902;48.158;8.634;2024-03-07T09:39:58;82.20;;;45.60;;
21480;SDS011;10902;48.158;8.634;2024-03-07T09:42:44;71.10;;;40.70;;
21480;SDS011;10902;48.158;8.634;2024-03-07T09:45:37;69.20;;;41.28;;
21480;SDS011;10902;48.158;8.634;2024-03-07T09:48:23;66.60;;;41.10;;
21480;SDS011;10902;48.158;8.634;2024-03-07T09:51:12;66.53;;;40.05;;
21480;SDS011;10902;48.158;8.634;2024-03-07T09:54:02;69.25;;;39.60;;
21480;SDS011;10902;48.158;8.634;2024-03-07T09:56:48;70.32;;;41.50;;
21480;SDS011;10902;48.158;8.634;2024-03-07T09:59:34;78.35;;;44.10;;
21480;SDS011;10902;48.158;8.634;2024-03-07T10:02:25;72.68;;;42.67;;
21480;SDS011;10902;48.158;8.634;2024-03-07T10:05:11;74.47;;;42.67;;
21480;SDS011;10902;48.158;8.634;2024-03-07T10:08:00;70.68;;;41.80;;
21480;SDS011;10902;48.158;8.634;2024-03-07T10:10:46;73.90;;;42.90;;
21480;SDS011;10902;48.158;8.634;2024-03-07T10:13:32;75.72;;;42.72;;
21480;SDS011;10902;48.158;8.634;2024-03-07T10:16:18;72.72;;;41.17;;
21480;SDS011;10902;48.158;8.634;2024-03-07T10:19:04;68.25;;;39.28;;
21480;SDS011;10902;48.158;8.634;2024-03-07T10:21:50;70.20;;;41.92;;
21480;SDS011;10902;48.158;8.634;2024-03-07T10:24:37;68.72;;;40.55;;
21480;SDS011;10902;48.158;8.634;2024-03-07T10:27:23;70.07;;;40.58;;
21480;SDS011;10902;48.158;8.634;2024-03-07T10:30:09;70.57;;;40.65;;
21480;SDS011;10902;48.158;8.634;2024-03-07T10:32:55;66.75;;;39.65;;
21480;SDS011;10902;48.158;8.634;2024-03-07T10:35:42;67.90;;;40.72;;
21480;SDS011;10902;48.158;8.634;2024-03-07T10:38:34;67.00;;;39.05;;
21480;SDS011;10902;48.158;8.634;2024-03-07T10:41:20;67.25;;;39.25;;
21480;SDS011;10902;48.158;8.634;2024-03-07T10:44:11;60.83;;;37.97;;
21480;SDS011;10902;48.158;8.634;2024-03-07T10:47:05;61.08;;;37.67;;
21480;SDS011;10902;48.158;8.634;2024-03-07T10:59:25;55.38;;;34.63;;
21480;SDS011;10902;48.158;8.634;2024-03-07T11:05:27;54.85;;;34.25;;
21480;SDS011;10902;48.158;8.634;2024-03-07T11:08:16;49.13;;;30.88;;
21480;SDS011;10902;48.158;8.634;2024-03-07T11:11:03;46.53;;;30.63;;
21480;SDS011;10902;48.158;8.634;2024-03-07T11:13:49;48.40;;;31.75;;
21480;SDS011;10902;48.158;8.634;2024-03-07T11:16:35;47.00;;;31.35;;
21480;SDS011;10902;48.158;8.634;2024-03-07T11:19:27;49.03;;;31.77;;
21480;SDS011;10902;48.158;8.634;2024-03-07T11:22:29;51.38;;;31.55;;
21480;SDS011;10902;48.158;8.634;2024-03-07T11:25:18;49.15;;;30.02;;
21480;SDS011;10902;48.158;8.634;2024-03-07T11:28:06;48.15;;;30.52;;
21480;SDS011;10902;48.158;8.634;2024-03-07T11:30:51;48.35;;;31.27;;
21480;SDS011;10902;48.158;8.634;2024-03-07T11:33:37;48.15;;;30.35;;
21480;SDS011;10902;48.158;8.634;2024-03-07T11:36:42;62.95;;;35.47;;
21480;SDS011;10902;48.158;8.634;2024-03-07T11:39:41;45.75;;;30.63;;
21480;SDS011;10902;48.158;8.634;2024-03-07T11:42:28;46.47;;;29.70;;
21480;SDS011;10902;48.158;8.634;2024-03-07T11:45:18;46.92;;;28.85;;
21480;SDS011;10902;48.158;8.634;2024-03-07T11:48:10;46.38;;;29.55;;
21480;SDS011;10902;48.158;8.634;2024-03-07T11:50:56;42.88;;;29.20;;
21480;SDS011;10902;48.158;8.634;2024-03-07T11:53:41;46.35;;;29.65;;
21480;SDS011;10902;48.158;8.634;2024-03-07T11:56:28;44.88;;;29.25;;
21480;SDS011;10902;48.158;8.634;2024-03-07T11:59:15;41.28;;;28.50;;
21480;SDS011;10902;48.158;8.634;2024-03-07T12:02:00;42.97;;;29.08;;
21480;SDS011;10902;48.158;8.634;2024-03-07T12:04:46;46.58;;;29.92;;
21480;SDS011;10902;48.158;8.634;2024-03-07T12:07:33;40.15;;;26.90;;
21480;SDS011;10902;48.158;8.634;2024-03-07T12:10:19;41.28;;;27.75;;
21480;SDS011;10902;48.158;8.634;2024-03-07T12:13:13;42.15;;;29.20;;
21480;SDS011;10902;48.158;8.634;2024-03-07T12:16:03;40.78;;;28.73;;
21480;SDS011;10902;48.158;8.634;2024-03-07T12:18:53;44.80;;;28.67;;
21480;SDS011;10902;48.158;8.634;2024-03-07T12:21:39;43.58;;;29.25;;
21480;SDS011;10902;48.158;8.634;2024-03-07T12:24:25;45.30;;;28.33;;
21480;SDS011;10902;48.158;8.634;2024-03-07T12:27:11;40.97;;;26.95;;
21480;SDS011;10902;48.158;8.634;2024-03-07T12:29:57;41.22;;;27.38;;
21480;SDS011;10902;48.158;8.634;2024-03-07T12:32:50;37.42;;;26.33;;
21480;SDS011;10902;48.158;8.634;2024-03-07T12:35:36;42.38;;;26.85;;
21480;SDS011;10902;48.158;8.634;2024-03-07T12:38:22;36.45;;;25.60;;
21480;SDS011;10902;48.158;8.634;2024-03-07T12:41:09;40.92;;;27.20;;
21480;SDS011;10902;48.158;8.634;2024-03-07T12:43:58;40.60;;;26.15;;
21480;SDS011;10902;48.158;8.634;2024-03-07T12:46:47;39.33;;;26.00;;
21480;SDS011;10902;48.158;8.634;2024-03-07T12:49:33;40.60;;;26.77;;
21480;SDS011;10902;48.158;8.634;2024-03-07T12:52:19;41.75;;;26.50;;
21480;SDS011;10902;48.158;8.634;2024-03-07T12:55:05;40.42;;;26.20;;
21480;SDS011;10902;48.158;8.634;2024-03-07T12:57:51;37.55;;;23.70;;
21480;SDS011;10902;48.158;8.634;2024-03-07T13:00:37;35.80;;;23.48;;
21480;SDS011;10902;48.158;8.634;2024-03-07T13:03:23;33.55;;;22.98;;
21480;SDS011;10902;48.158;8.634;2024-03-07T13:06:14;33.28;;;22.45;;
21480;SDS011;10902;48.158;8.634;2024-03-07T13:09:04;33.90;;;22.60;;
21480;SDS011;10902;48.158;8.634;2024-03-07T13:11:55;34.58;;;23.65;;
21480;SDS011;10902;48.158;8.634;2024-03-07T13:14:41;34.65;;;23.27;;
21480;SDS011;10902;48.158;8.634;2024-03-07T13:17:29;36.90;;;25.55;;
21480;SDS011;10902;48.158;8.634;2024-03-07T13:20:14;39.05;;;25.52;;
21480;SDS011;10902;48.158;8.634;2024-03-07T13:23:00;39.05;;;25.60;;
21480;SDS011;10902;48.158;8.634;2024-03-07T13:25:46;39.83;;;26.33;;
21480;SDS011;10902;48.158;8.634;2024-03-07T13:28:33;39.05;;;25.00;;
21480;SDS011;10902;48.158;8.634;2024-03-07T13:31:19;36.25;;;24.95;;
21480;SDS011;10902;48.158;8.634;2024-03-07T13:34:05;40.22;;;26.98;;
21480;SDS011;10902;48.158;8.634;2024-03-07T13:36:55;41.70;;;27.60;;
21480;SDS011;10902;48.158;8.634;2024-03-07T13:39:43;42.15;;;26.67;;
21480;SDS011;10902;48.158;8.634;2024-03-07T13:42:28;44.00;;;27.73;;
21480;SDS011;10902;48.158;8.634;2024-03-07T13:45:14;42.65;;;27.58;;
21480;SDS011;10902;48.158;8.634;2024-03-07T13:48:00;45.40;;;27.65;;
21480;SDS011;10902;48.158;8.634;2024-03-07T13:50:45;43.60;;;28.15;;
21480;SDS011;10902;48.158;8.634;2024-03-07T13:53:33;45.60;;;28.35;;
21480;SDS011;10902;48.158;8.634;2024-03-07T14:12:43;51.85;;;30.60;;
21480;SDS011;10902;48.158;8.634;2024-03-07T14:19:13;44.03;;;27.98;;
21480;SDS011;10902;48.158;8.634;2024-03-07T14:26:00;47.58;;;28.50;;
21480;SDS011;10902;48.158;8.634;2024-03-07T14:32:28;41.22;;;25.75;;
21480;SDS011;10902;48.158;8.634;2024-03-07T14:35:28;43.53;;;26.60;;
21480;SDS011;10902;48.158;8.634;2024-03-07T14:38:23;44.58;;;28.10;;
21480;SDS011;10902;48.158;8.634;2024-03-07T14:41:14;46.03;;;26.88;;
21480;SDS011;10902;48.158;8.634;2024-03-07T14:44:01;47.53;;;29.27;;
21480;SDS011;10902;48.158;8.634;2024-03-07T14:46:48;40.55;;;25.95;;
21480;SDS011;10902;48.158;8.634;2024-03-07T14:49:40;42.10;;;26.55;;
21480;SDS011;10902;48.158;8.634;2024-03-07T14:52:26;47.97;;;28.52;;
21480;SDS011;10902;48.158;8.634;2024-03-07T14:55:12;44.08;;;27.45;;
21480;SDS011;10902;48.158;8.634;2024-03-07T14:58:03;45.83;;;28.15;;
21480;SDS011;10902;48.158;8.634;2024-03-07T15:00:50;47.92;;;27.98;;
21480;SDS011;10902;48.158;8.634;2024-03-07T15:03:38;46.15;;;28.20;;
21480;SDS011;10902;48.158;8.634;2024-03-07T15:06:24;47.30;;;28.27;;
21480;SDS011;10902;48.158;8.634;2024-03-07T15:09:10;46.50;;;29.08;;
21480;SDS011;10902;48.158;8.634;2024-03-07T15:11:56;43.92;;;27.48;;
21480;SDS011;10902;48.158;8.634;2024-03-07T15:14:42;38.90;;;22.73;;
21480;SDS011;10902;48.158;8.634;2024-03-07T15:17:27;30.92;;;19.27;;
21480;SDS011;10902;48.158;8.634;2024-03-07T15:20:13;29.77;;;18.75;;
21480;SDS011;10902;48.158;8.634;2024-03-07T15:23:08;33.15;;;20.00;;
21480;SDS011;10902;48.158;8.634;2024-03-07T15:25:54;32.10;;;20.20;;
21480;SDS011;10902;48.158;8.634;2024-03-07T15:28:39;33.38;;;20.83;;
21480;SDS011;10902;48.158;8.634;2024-03-07T15:31:25;35.63;;;21.48;;
21480;SDS011;10902;48.158;8.634;2024-03-07T15:34:11;35.28;;;21.92;;
21480;SDS011;10902;48.158;8.634;2024-03-07T15:37:00;37.75;;;21.95;;
21480;SDS011;10902;48.158;8.634;2024-03-07T15:39:47;35.45;;;21.02;;
21480;SDS011;10902;48.158;8.634;2024-03-07T15:42:32;39.15;;;22.33;;
21480;SDS011;10902;48.158;8.634;2024-03-07T15:45:19;39.30;;;23.40;;
21480;SDS011;10902;48.158;8.634;2024-03-07T15:48:07;39.47;;;22.90;;
21480;SDS011;10902;48.158;8.634;2024-03-07T15:50:55;41.85;;;24.77;;
21480;SDS011;10902;48.158;8.634;2024-03-07T15:53:42;43.20;;;25.23;;
21480;SDS011;10902;48.158;8.634;2024-03-07T15:56:28;39.17;;;22.42;;
21480;SDS011;10902;48.158;8.634;2024-03-07T15:59:14;38.72;;;22.80;;
21480;SDS011;10902;48.158;8.634;2024-03-07T16:01:59;42.35;;;25.23;;
21480;SDS011;10902;48.158;8.634;2024-03-07T16:04:45;40.63;;;23.02;;
21480;SDS011;10902;48.158;8.634;2024-03-07T16:07:31;45.30;;;26.33;;
21480;SDS011;10902;48.158;8.634;2024-03-07T16:10:17;42.08;;;23.88;;
21480;SDS011;10902;48.158;8.634;2024-03-07T16:13:04;40.35;;;23.38;;
21480;SDS011;10902;48.158;8.634;2024-03-07T16:15:53;46.30;;;27.23;;
21480;SDS011;10902;48.158;8.634;2024-03-07T16:18:39;43.63;;;24.05;;
21480;SDS011;10902;48.158;8.634;2024-03-07T16:21:26;40.47;;;24.70;;
21480;SDS011;10902;48.158;8.634;2024-03-07T16:24:12;38.70;;;25.02;;
21480;SDS011;10902;48.158;8.634;2024-03-07T16:26:58;45.72;;;26.08;;
21480;SDS011;10902;48.158;8.634;2024-03-07T16:29:43;43.85;;;26.27;;
21480;SDS011;10902;48.158;8.634;2024-03-07T16:32:30;39.92;;;23.58;;
21480;SDS011;10902;48.158;8.634;2024-03-07T16:35:20;45.38;;;27.38;;
21480;SDS011;10902;48.158;8.634;2024-03-07T16:38:06;44.65;;;26.75;;
21480;SDS011;10902;48.158;8.634;2024-03-07T16:40:54;45.25;;;27.65;;
21480;SDS011;10902;48.158;8.634;2024-03-07T16:43:40;41.28;;;25.35;;
21480;SDS011;10902;48.158;8.634;2024-03-07T16:46:25;43.45;;;26.90;;
21480;SDS011;10902;48.158;8.634;2024-03-07T16:49:11;45.90;;;25.90;;
21480;SDS011;10902;48.158;8.634;2024-03-07T16:51:59;45.10;;;24.88;;
21480;SDS011;10902;48.158;8.634;2024-03-07T16:54:44;40.65;;;25.95;;
21480;SDS011;10902;48.158;8.634;2024-03-07T16:57:30;44.10;;;28.23;;